Terminal Aerodrome Forecast
Issued by NWS

Home | Current Version | Previous Version | Text Only | Print | Product List | Glossary On
Versions: 1 2 3 4 5 6 7 8 9 10 11 12 13 14 15 16 17
000
FTAK31 PAJN 190500
TAFAGY
TAF
PAGY 190538Z 1906/2006 03015G30KT P6SM BKN060 OVC100
     FM190800 04012G22KT P6SM BKN050 OVC080
     FM191500 04010G18KT P6SM VCSH BKN050 OVC100
     FM192000 04010G18KT P6SM SCT035 OVC050
     FM200000 04010KT P6SM VCSH BKN030 OVC050
      AMD LTD TO CLD VIS AND WIND=

USA.gov is the U.S. government's official web portal to all federal, state and local government web resources and services.